createdAt,value
2018-01-25T00:00:38.186Z,0
2018-01-25T00:01:47.291Z,0
2018-01-25T00:02:56.123Z,0
2018-01-25T00:04:05.058Z,0
2018-01-25T00:05:14.161Z,0
2018-01-25T00:06:22.992Z,0
2018-01-25T00:07:31.821Z,0
2018-01-25T00:08:40.652Z,0
2018-01-25T00:09:49.482Z,0
2018-01-25T00:10:58.584Z,0
2018-01-25T00:12:07.417Z,0
2018-01-25T00:13:16.531Z,0
2018-01-25T00:14:25.361Z,0
2018-01-25T00:15:34.294Z,0
2018-01-25T00:16:43.127Z,0
2018-01-25T00:17:52.234Z,0
2018-01-25T00:19:01.067Z,0
2018-01-25T00:20:09.901Z,0
2018-01-25T00:21:18.883Z,0
2018-01-25T00:22:27.712Z,0
2018-01-25T00:23:36.545Z,0
2018-01-25T00:24:45.376Z,0
2018-01-25T00:25:54.207Z,0
2018-01-25T00:27:03.041Z,0
2018-01-25T00:28:11.873Z,0
2018-01-25T00:29:20.704Z,0
2018-01-25T00:30:29.537Z,0
2018-01-25T00:31:38.371Z,0
2018-01-25T00:32:47.202Z,0
2018-01-25T00:33:56.033Z,0
2018-01-25T00:35:04.864Z,0
2018-01-25T00:36:13.693Z,0
2018-01-25T00:37:22.725Z,0
2018-01-25T00:38:31.709Z,0
2018-01-25T00:39:40.540Z,0
2018-01-25T00:40:49.372Z,0
2018-01-25T00:41:58.201Z,0
2018-01-25T00:43:07.038Z,0
2018-01-25T00:44:15.970Z,0
2018-01-25T00:45:24.799Z,0
2018-01-25T00:46:33.630Z,0
2018-01-25T00:47:42.464Z,0
2018-01-25T00:48:51.296Z,0
2018-01-25T00:50:00.405Z,0
2018-01-25T00:51:09.236Z,0
2018-01-25T00:52:18.075Z,0
2018-01-25T00:53:26.907Z,0
2018-01-25T00:54:35.738Z,0
2018-01-25T00:55:44.568Z,0
2018-01-25T00:56:53.403Z,0
2018-01-25T00:58:02.507Z,0
2018-01-25T00:59:11.611Z,0
2018-01-25T01:00:20.441Z,0
2018-01-25T01:01:29.373Z,0
2018-01-25T01:02:38.752Z,0
2018-01-25T01:03:47.582Z,0
2018-01-25T01:04:56.423Z,0
2018-01-25T01:06:05.803Z,0
2018-01-25T01:07:14.933Z,0
2018-01-25T01:08:23.764Z,0
2018-01-25T01:09:32.594Z,0
2018-01-25T01:10:41.426Z,0
2018-01-25T01:11:50.258Z,0
2018-01-25T01:12:59.388Z,0
2018-01-25T01:14:08.225Z,0
2018-01-25T01:15:17.057Z,0
2018-01-25T01:16:25.889Z,0
2018-01-25T01:17:34.992Z,0
2018-01-25T01:18:43.975Z,0
2018-01-25T01:19:52.807Z,0
2018-01-25T01:21:01.646Z,0
2018-01-25T01:22:10.747Z,0
2018-01-25T01:23:19.577Z,0
2018-01-25T01:24:28.407Z,0
2018-01-25T01:25:37.510Z,0
2018-01-25T01:26:46.340Z,0
2018-01-25T01:27:55.171Z,0
2018-01-25T01:29:04.009Z,0
2018-01-25T01:30:12.991Z,0
2018-01-25T01:31:21.823Z,0
2018-01-25T01:32:30.655Z,0
2018-01-25T01:33:39.488Z,0
2018-01-25T01:34:48.319Z,0
2018-01-25T01:35:57.530Z,0
2018-01-25T01:37:06.356Z,0
2018-01-25T01:38:15.183Z,0
2018-01-25T01:39:24.014Z,0
2018-01-25T01:40:32.845Z,0
2018-01-25T01:41:41.674Z,0
2018-01-25T01:42:50.503Z,0
2018-01-25T01:43:59.333Z,0
2018-01-25T01:45:08.167Z,0
2018-01-25T01:46:16.997Z,0
2018-01-25T01:47:25.926Z,0
2018-01-25T01:48:34.756Z,0
2018-01-25T01:49:43.585Z,0
2018-01-25T01:50:52.417Z,0
2018-01-25T01:52:01.248Z,0
2018-01-25T01:53:10.129Z,0
2018-01-25T01:54:18.958Z,0
2018-01-25T01:55:27.788Z,0
2018-01-25T01:56:36.627Z,0
2018-01-25T01:57:45.456Z,0
2018-01-25T01:58:54.389Z,0
2018-01-25T02:00:03.221Z,0
2018-01-25T02:01:12.051Z,0
2018-01-25T02:02:20.882Z,0
2018-01-25T02:03:29.713Z,0
2018-01-25T02:04:38.691Z,0
2018-01-25T02:05:47.521Z,0
2018-01-25T02:06:56.354Z,0
2018-01-25T02:08:05.185Z,0
2018-01-25T02:09:14.012Z,0
2018-01-25T02:10:22.841Z,0
2018-01-25T02:11:31.673Z,0
2018-01-25T02:12:40.501Z,0
2018-01-25T02:13:49.331Z,0
2018-01-25T02:14:58.162Z,0
2018-01-25T02:16:07.290Z,0
2018-01-25T02:17:16.120Z,0
2018-01-25T02:18:24.950Z,0
2018-01-25T02:19:33.785Z,0
2018-01-25T02:20:42.611Z,0
2018-01-25T02:21:51.742Z,0
2018-01-25T02:23:00.573Z,0
2018-01-25T02:24:09.674Z,0
2018-01-25T02:25:18.777Z,0
2018-01-25T02:26:27.607Z,0
2018-01-25T02:27:36.436Z,0
2018-01-25T02:28:45.266Z,0
2018-01-25T02:29:54.095Z,0
2018-01-25T02:31:02.926Z,0
2018-01-25T02:32:11.757Z,0
2018-01-25T02:33:20.787Z,0
2018-01-25T02:34:29.617Z,0
2018-01-25T02:35:38.450Z,0
2018-01-25T02:36:47.275Z,0
2018-01-25T02:37:56.108Z,0
2018-01-25T02:39:05.037Z,0
2018-01-25T02:40:13.874Z,0
2018-01-25T02:41:22.703Z,0
2018-01-25T02:42:31.536Z,0
2018-01-25T02:43:40.368Z,0
2018-01-25T02:44:49.457Z,0
2018-01-25T02:45:58.272Z,0
2018-01-25T02:47:07.103Z,0
2018-01-25T02:48:15.930Z,0
2018-01-25T02:49:24.759Z,0
2018-01-25T02:50:33.593Z,0
2018-01-25T02:51:42.424Z,0
2018-01-25T02:52:51.254Z,0
2018-01-25T02:54:00.353Z,0
2018-01-25T02:55:09.455Z,0
2018-01-25T02:56:18.287Z,0
2018-01-25T02:57:27.115Z,0
2018-01-25T02:58:35.947Z,0
2018-01-25T02:59:44.774Z,0
2018-01-25T03:00:53.602Z,0
2018-01-25T03:02:02.731Z,0
2018-01-25T03:03:11.559Z,0
2018-01-25T03:04:20.388Z,0
2018-01-25T03:05:29.225Z,0
2018-01-25T03:06:38.057Z,0
2018-01-25T03:07:46.957Z,0
2018-01-25T03:08:55.768Z,0
2018-01-25T03:10:04.599Z,0
2018-01-25T03:11:13.427Z,0
2018-01-25T03:12:22.257Z,0
2018-01-25T03:13:31.338Z,0
2018-01-25T03:14:40.444Z,0
2018-01-25T03:15:49.270Z,0
2018-01-25T03:16:58.100Z,0
2018-01-25T03:18:06.931Z,0
2018-01-25T03:19:15.760Z,0
2018-01-25T03:20:24.589Z,0
2018-01-25T03:21:33.418Z,0
2018-01-25T03:22:42.250Z,0
2018-01-25T03:23:51.111Z,0
2018-01-25T03:25:00.057Z,0
2018-01-25T03:26:08.887Z,0
2018-01-25T03:27:17.719Z,0
2018-01-25T03:28:26.550Z,0
2018-01-25T03:29:35.380Z,0
2018-01-25T03:30:44.513Z,0
2018-01-25T03:31:53.342Z,0
2018-01-25T03:33:02.172Z,0
2018-01-25T03:34:11.002Z,0
2018-01-25T03:35:19.830Z,0
2018-01-25T03:36:28.812Z,0
2018-01-25T03:37:37.645Z,0
2018-01-25T03:38:46.475Z,0
2018-01-25T03:39:55.304Z,0
2018-01-25T03:41:04.138Z,0
2018-01-25T03:42:12.967Z,0
2018-01-25T03:43:21.794Z,0
2018-01-25T03:44:30.626Z,0
2018-01-25T03:45:39.456Z,0
2018-01-25T03:46:48.286Z,0
2018-01-25T03:47:57.367Z,0
2018-01-25T03:49:06.198Z,0
2018-01-25T03:50:15.028Z,0
2018-01-25T03:51:23.856Z,0
2018-01-25T03:52:32.685Z,0
2018-01-25T03:53:41.516Z,0
2018-01-25T03:54:50.348Z,0
2018-01-25T03:55:59.177Z,0
2018-01-25T03:57:08.006Z,0
2018-01-25T03:58:16.834Z,0
2018-01-25T03:59:25.765Z,0
2018-01-25T04:00:34.872Z,0
2018-01-25T04:01:43.704Z,0
2018-01-25T04:02:52.533Z,0
2018-01-25T04:04:01.635Z,0
2018-01-25T04:05:11.141Z,0
2018-01-25T04:06:19.972Z,0
2018-01-25T04:07:28.802Z,0
2018-01-25T04:08:37.630Z,0
2018-01-25T04:09:46.459Z,0
2018-01-25T04:10:55.588Z,0
2018-01-25T04:12:04.419Z,0
2018-01-25T04:13:13.257Z,0
2018-01-25T04:14:22.082Z,0
2018-01-25T04:15:30.912Z,0
2018-01-25T04:16:39.744Z,0
2018-01-25T04:17:48.569Z,0
2018-01-25T04:18:57.399Z,0
2018-01-25T04:20:06.796Z,0
2018-01-25T04:21:15.623Z,0
2018-01-25T04:22:24.557Z,0
2018-01-25T04:23:33.385Z,0
2018-01-25T04:24:42.215Z,0
2018-01-25T04:25:51.047Z,0
2018-01-25T04:26:59.877Z,0
2018-01-25T04:28:08.810Z,0
2018-01-25T04:29:17.638Z,0
2018-01-25T04:30:26.469Z,0
2018-01-25T04:31:35.300Z,0
2018-01-25T04:32:44.131Z,0
2018-01-25T04:33:53.061Z,0
2018-01-25T04:35:01.893Z,0
2018-01-25T04:36:10.719Z,0
2018-01-25T04:37:19.547Z,0
2018-01-25T04:38:28.378Z,0
2018-01-25T04:39:37.630Z,0
2018-01-25T04:40:46.461Z,0
2018-01-25T04:41:55.293Z,0
2018-01-25T04:43:04.121Z,0
2018-01-25T04:44:13.225Z,0
2018-01-25T04:45:22.154Z,0
2018-01-25T04:46:30.984Z,0
2018-01-25T04:47:39.814Z,0
2018-01-25T04:48:48.642Z,0
2018-01-25T04:49:57.470Z,0
2018-01-25T04:51:06.302Z,0
2018-01-25T04:52:15.132Z,0
2018-01-25T04:53:23.963Z,0
2018-01-25T04:54:32.790Z,0
2018-01-25T04:55:41.622Z,0
2018-01-25T04:56:50.449Z,0
2018-01-25T04:57:59.280Z,0
2018-01-25T04:59:08.110Z,0
2018-01-25T05:00:16.939Z,0
2018-01-25T05:01:25.767Z,0
2018-01-25T05:02:34.847Z,0
2018-01-25T05:03:43.680Z,0
2018-01-25T05:04:52.508Z,0
2018-01-25T05:06:01.338Z,0
2018-01-25T05:07:10.168Z,0
2018-01-25T05:08:19.246Z,0
2018-01-25T05:09:28.074Z,0
2018-01-25T05:10:36.905Z,0
2018-01-25T05:11:45.733Z,0
2018-01-25T05:12:54.561Z,0
2018-01-25T05:14:03.491Z,0
2018-01-25T05:15:12.327Z,0
2018-01-25T05:16:21.158Z,0
2018-01-25T05:17:29.991Z,0
2018-01-25T05:18:38.820Z,0
2018-01-25T05:19:48.053Z,0
2018-01-25T05:20:56.880Z,0
2018-01-25T05:22:05.709Z,0
2018-01-25T05:23:14.538Z,0
2018-01-25T05:24:23.369Z,0
2018-01-25T05:25:32.350Z,0
2018-01-25T05:26:41.729Z,0
2018-01-25T05:27:50.559Z,0
2018-01-25T05:28:59.390Z,0
2018-01-25T05:30:08.219Z,0
2018-01-25T05:31:17.199Z,0
2018-01-25T05:32:26.029Z,0
2018-01-25T05:33:34.858Z,0
2018-01-25T05:34:43.717Z,0
2018-01-25T05:35:52.515Z,0
2018-01-25T05:37:01.444Z,0
2018-01-25T05:38:10.274Z,0
2018-01-25T05:39:19.106Z,0
2018-01-25T05:40:27.937Z,0
2018-01-25T05:41:36.771Z,0
2018-01-25T05:42:45.599Z,0
2018-01-25T05:43:54.428Z,0
2018-01-25T05:45:03.257Z,0
2018-01-25T05:46:12.634Z,0
2018-01-25T05:47:21.468Z,0
2018-01-25T05:48:30.570Z,0
2018-01-25T05:49:39.401Z,0
2018-01-25T05:50:48.232Z,0
2018-01-25T05:51:57.061Z,0
2018-01-25T05:53:05.889Z,0
2018-01-25T05:54:14.722Z,0
2018-01-25T05:55:23.553Z,0
2018-01-25T05:56:32.382Z,0
2018-01-25T05:57:41.213Z,0
2018-01-25T05:58:50.314Z,0
2018-01-25T05:59:59.295Z,0
2018-01-25T06:01:08.126Z,0
2018-01-25T06:02:16.957Z,0
2018-01-25T06:03:25.786Z,0
2018-01-25T06:04:34.615Z,0
2018-01-25T06:05:43.446Z,0
2018-01-25T06:06:52.278Z,0
2018-01-25T06:08:01.105Z,0
2018-01-25T06:09:09.933Z,0
2018-01-25T06:10:19.046Z,0
2018-01-25T06:11:27.875Z,0
2018-01-25T06:12:36.704Z,0
2018-01-25T06:13:45.533Z,0
2018-01-25T06:14:54.371Z,0
2018-01-25T06:16:03.199Z,0
2018-01-25T06:17:12.080Z,0
2018-01-25T06:18:20.922Z,0
2018-01-25T06:19:30.028Z,0
2018-01-25T06:20:38.859Z,0
2018-01-25T06:21:47.687Z,0
2018-01-25T06:22:56.616Z,0
2018-01-25T06:24:05.444Z,0
2018-01-25T06:25:14.273Z,0
2018-01-25T06:26:23.101Z,0
2018-01-25T06:27:31.927Z,0
2018-01-25T06:28:40.758Z,0
2018-01-25T06:29:49.588Z,0
2018-01-25T06:30:58.417Z,0
2018-01-25T06:32:07.246Z,0
2018-01-25T06:33:16.077Z,0
2018-01-25T06:34:25.108Z,0
2018-01-25T06:35:33.935Z,0
2018-01-25T06:36:42.765Z,0
2018-01-25T06:37:51.595Z,0
2018-01-25T06:39:00.427Z,0
2018-01-25T06:40:09.505Z,0
2018-01-25T06:41:18.609Z,0
2018-01-25T06:42:27.442Z,0
2018-01-25T06:43:36.272Z,0
2018-01-25T06:44:45.106Z,0
2018-01-25T06:45:53.936Z,0
2018-01-25T06:47:02.767Z,0
2018-01-25T06:48:11.596Z,0
2018-01-25T06:49:20.425Z,0
2018-01-25T06:50:29.259Z,0
2018-01-25T06:51:38.411Z,0
2018-01-25T06:52:47.244Z,0
2018-01-25T06:53:56.070Z,0
2018-01-25T06:55:04.900Z,0
2018-01-25T06:56:13.728Z,0
2018-01-25T06:57:22.708Z,0
2018-01-25T06:58:31.536Z,0
2018-01-25T06:59:40.371Z,0
2018-01-25T07:00:49.471Z,0
2018-01-25T07:01:58.298Z,0
2018-01-25T07:03:07.428Z,0
2018-01-25T07:04:16.257Z,0
2018-01-25T07:05:25.086Z,0
2018-01-25T07:06:33.914Z,0
2018-01-25T07:07:42.746Z,0
2018-01-25T07:08:51.727Z,0
2018-01-25T07:10:00.836Z,0
2018-01-25T07:11:09.941Z,0
2018-01-25T07:12:18.773Z,0
2018-01-25T07:13:27.608Z,0
2018-01-25T07:14:36.739Z,0
2018-01-25T07:15:45.843Z,0
2018-01-25T07:16:54.673Z,5
2018-01-25T07:18:03.505Z,5
2018-01-25T07:19:12.613Z,5
2018-01-25T07:20:21.714Z,5
2018-01-25T07:21:30.546Z,5
2018-01-25T07:22:39.376Z,5
2018-01-25T07:23:48.204Z,5
2018-01-25T07:24:57.033Z,10
2018-01-25T07:26:05.863Z,10
2018-01-25T07:27:14.694Z,10
2018-01-25T07:28:23.526Z,10
2018-01-25T07:29:32.357Z,10
2018-01-25T07:30:41.185Z,15
2018-01-25T07:31:50.167Z,15
2018-01-25T07:32:59.277Z,15
2018-01-25T07:34:08.106Z,15
2018-01-25T07:35:16.938Z,20
2018-01-25T07:36:25.770Z,20
2018-01-25T07:37:34.749Z,20
2018-01-25T07:38:43.582Z,20
2018-01-25T07:39:52.682Z,25
2018-01-25T07:41:01.512Z,25
2018-01-25T07:42:10.344Z,25
2018-01-25T07:43:19.175Z,25
2018-01-25T07:44:28.006Z,25
2018-01-25T07:45:36.836Z,25
2018-01-25T07:46:45.666Z,30
2018-01-25T07:47:54.496Z,30
2018-01-25T07:49:03.526Z,35
2018-01-25T07:50:12.356Z,35
2018-01-25T07:51:21.186Z,35
2018-01-25T07:52:30.018Z,35
2018-01-25T07:53:38.848Z,40
2018-01-25T07:54:47.728Z,40
2018-01-25T07:55:56.557Z,40
2018-01-25T07:57:05.387Z,35
2018-01-25T07:58:14.218Z,35
2018-01-25T07:59:23.050Z,35
2018-01-25T08:00:31.884Z,35
2018-01-25T08:01:40.996Z,35
2018-01-25T08:02:49.827Z,35
2018-01-25T08:03:58.658Z,35
2018-01-25T08:05:07.489Z,35
2018-01-25T08:06:16.423Z,35
2018-01-25T08:07:25.253Z,35
2018-01-25T08:08:34.080Z,35
2018-01-25T08:09:42.910Z,35
2018-01-25T08:10:51.742Z,40
2018-01-25T08:12:00.672Z,35
2018-01-25T08:13:09.780Z,35
2018-01-25T08:14:18.614Z,35
2018-01-25T08:15:27.445Z,40
2018-01-25T08:16:36.279Z,35
2018-01-25T08:17:45.256Z,35
2018-01-25T08:18:54.088Z,35
2018-01-25T08:20:02.919Z,35
2018-01-25T08:21:11.750Z,40
2018-01-25T08:22:20.580Z,35
2018-01-25T08:23:29.561Z,40
2018-01-25T08:24:38.392Z,40
2018-01-25T08:25:47.223Z,45
2018-01-25T08:26:56.056Z,50
2018-01-25T08:28:04.889Z,50
2018-01-25T08:29:13.720Z,55
2018-01-25T08:30:22.551Z,55
2018-01-25T08:31:31.382Z,50
2018-01-25T08:32:40.211Z,50
2018-01-25T08:33:49.043Z,50
2018-01-25T08:34:57.876Z,45
2018-01-25T08:36:06.707Z,50
2018-01-25T08:37:15.539Z,50
2018-01-25T08:38:24.695Z,55
2018-01-25T08:39:33.484Z,60
2018-01-25T08:40:42.417Z,55
2018-01-25T08:41:51.310Z,65
2018-01-25T08:43:00.081Z,55
2018-01-25T08:44:08.913Z,60
2018-01-25T08:45:17.746Z,65
2018-01-25T08:46:26.579Z,65
2018-01-25T08:47:35.411Z,70
2018-01-25T08:48:44.579Z,65
2018-01-25T08:49:53.408Z,65
2018-01-25T08:51:02.240Z,75
2018-01-25T08:52:11.174Z,85
2018-01-25T08:53:20.276Z,90
2018-01-25T08:54:29.109Z,90
2018-01-25T08:55:37.940Z,95
2018-01-25T08:56:46.771Z,95
2018-01-25T08:57:55.752Z,95
2018-01-25T08:59:04.585Z,105
2018-01-25T09:00:13.419Z,95
2018-01-25T09:01:22.252Z,100
2018-01-25T09:02:31.085Z,105
2018-01-25T09:03:40.016Z,100
2018-01-25T09:04:48.851Z,95
2018-01-25T09:05:58.229Z,95
2018-01-25T09:07:07.060Z,95
2018-01-25T09:08:15.891Z,95
2018-01-25T09:09:24.870Z,105
2018-01-25T09:10:33.704Z,90
2018-01-25T09:11:42.538Z,85
2018-01-25T09:12:51.368Z,95
2018-01-25T09:14:00.745Z,90
2018-01-25T09:15:09.831Z,80
2018-01-25T09:16:18.661Z,65
2018-01-25T09:17:27.496Z,80
2018-01-25T09:18:36.604Z,95
2018-01-25T09:19:45.435Z,100
2018-01-25T09:20:54.317Z,105
2018-01-25T09:22:03.149Z,125
2018-01-25T09:23:11.980Z,140
2018-01-25T09:24:20.809Z,150
2018-01-25T09:25:29.640Z,145
2018-01-25T09:26:38.626Z,155
2018-01-25T09:27:47.458Z,175
2018-01-25T09:28:56.291Z,195
2018-01-25T09:30:05.123Z,205
2018-01-25T09:31:13.957Z,220
2018-01-25T09:32:22.793Z,215
2018-01-25T09:33:31.623Z,215
2018-01-25T09:34:40.455Z,205
2018-01-25T09:35:49.284Z,220
2018-01-25T09:36:58.113Z,230
2018-01-25T09:38:06.996Z,210
2018-01-25T09:39:15.827Z,210
2018-01-25T09:40:24.660Z,215
2018-01-25T09:41:33.492Z,220
2018-01-25T09:42:42.324Z,200
2018-01-25T09:43:51.206Z,195
2018-01-25T09:45:00.042Z,205
2018-01-25T09:46:09.434Z,215
2018-01-25T09:47:18.266Z,210
2018-01-25T09:48:27.099Z,190
2018-01-25T09:49:36.081Z,175
2018-01-25T09:50:44.912Z,155
2018-01-25T09:51:53.743Z,145
2018-01-25T09:53:02.574Z,115
2018-01-25T09:54:11.410Z,135
2018-01-25T09:55:20.290Z,150
2018-01-25T09:56:29.123Z,155
2018-01-25T09:57:37.958Z,150
2018-01-25T09:58:46.795Z,160
2018-01-25T09:59:55.897Z,165
2018-01-25T10:01:05.030Z,170
2018-01-25T10:02:13.864Z,180
2018-01-25T10:03:22.699Z,185
2018-01-25T10:04:31.806Z,195
2018-01-25T10:05:40.636Z,205
2018-01-25T10:06:49.519Z,215
2018-01-25T10:07:58.351Z,225
2018-01-25T10:09:07.181Z,215
2018-01-25T10:10:16.018Z,205
2018-01-25T10:11:24.848Z,220
2018-01-25T10:12:34.084Z,225
2018-01-25T10:13:43.191Z,215
2018-01-25T10:14:52.023Z,195
2018-01-25T10:16:00.858Z,195
2018-01-25T10:17:09.690Z,220
2018-01-25T10:18:18.624Z,240
2018-01-25T10:19:27.458Z,240
2018-01-25T10:20:36.290Z,260
2018-01-25T10:21:45.124Z,270
2018-01-25T10:22:54.234Z,275
2018-01-25T10:24:03.166Z,265
2018-01-25T10:25:12.001Z,260
2018-01-25T10:26:20.836Z,260
2018-01-25T10:27:29.669Z,260
2018-01-25T10:28:38.502Z,265
2018-01-25T10:29:47.587Z,270
2018-01-25T10:30:56.419Z,270
2018-01-25T10:32:05.253Z,270
2018-01-25T10:33:14.087Z,265
2018-01-25T10:34:23.196Z,260
2018-01-25T10:35:32.026Z,275
2018-01-25T10:36:40.859Z,270
2018-01-25T10:37:49.692Z,225
2018-01-25T10:38:58.525Z,190
2018-01-25T10:40:07.360Z,160
2018-01-25T10:41:16.615Z,165
2018-01-25T10:42:25.450Z,145
2018-01-25T10:43:34.336Z,185
2018-01-25T10:44:43.167Z,175
2018-01-25T10:45:52.002Z,180
2018-01-25T10:47:01.136Z,190
2018-01-25T10:48:10.252Z,205
2018-01-25T10:49:19.083Z,190
2018-01-25T10:50:27.916Z,170
2018-01-25T10:51:36.749Z,155
2018-01-25T10:52:45.733Z,155
2018-01-25T10:53:54.566Z,165
2018-01-25T10:55:03.681Z,150
2018-01-25T10:56:12.511Z,175
2018-01-25T10:57:21.343Z,205
2018-01-25T10:58:30.274Z,190
2018-01-25T10:59:39.396Z,170
2018-01-25T11:00:48.214Z,170
2018-01-25T11:01:57.049Z,175
2018-01-25T11:03:05.885Z,170
2018-01-25T11:04:14.864Z,175
2018-01-25T11:05:23.698Z,160
2018-01-25T11:06:32.537Z,175
2018-01-25T11:07:41.366Z,195
2018-01-25T11:08:50.203Z,215
2018-01-25T11:09:59.038Z,185
2018-01-25T11:11:07.872Z,180
2018-01-25T11:12:16.704Z,165
2018-01-25T11:13:25.535Z,190
2018-01-25T11:14:34.370Z,175
2018-01-25T11:15:43.305Z,150
2018-01-25T11:16:52.138Z,150
2018-01-25T11:18:00.972Z,160
2018-01-25T11:19:09.812Z,135
2018-01-25T11:20:18.916Z,135
2018-01-25T11:21:27.762Z,140
2018-01-25T11:22:36.580Z,150
2018-01-25T11:23:45.414Z,140
2018-01-25T11:24:54.247Z,145
2018-01-25T11:26:03.364Z,130
2018-01-25T11:27:12.446Z,145
2018-01-25T11:28:21.549Z,180
2018-01-25T11:29:30.381Z,200
2018-01-25T11:30:39.216Z,185
2018-01-25T11:31:48.048Z,185
2018-01-25T11:32:57.183Z,200
2018-01-25T11:34:06.021Z,220
2018-01-25T11:35:14.850Z,240
2018-01-25T11:36:23.686Z,230
2018-01-25T11:37:32.795Z,205
2018-01-25T11:38:41.903Z,205
2018-01-25T11:39:51.004Z,235
2018-01-25T11:40:59.837Z,235
2018-01-25T11:42:08.671Z,225
2018-01-25T11:43:17.504Z,215
2018-01-25T11:44:26.438Z,225
2018-01-25T11:45:35.272Z,235
2018-01-25T11:46:44.384Z,255
2018-01-25T11:47:53.225Z,270
2018-01-25T11:49:02.059Z,270
2018-01-25T11:50:10.891Z,270
2018-01-25T11:51:19.728Z,265
2018-01-25T11:52:28.894Z,270
2018-01-25T11:53:37.756Z,270
2018-01-25T11:54:46.761Z,270
2018-01-25T11:55:55.593Z,270
2018-01-25T11:57:04.427Z,270
2018-01-25T11:58:13.262Z,260
2018-01-25T11:59:22.372Z,265
2018-01-25T12:00:31.209Z,270
2018-01-25T12:01:40.315Z,280
2018-01-25T12:02:49.151Z,285
2018-01-25T12:03:57.984Z,285
2018-01-25T12:05:06.817Z,275
2018-01-25T12:06:15.659Z,275
2018-01-25T12:07:24.485Z,265
2018-01-25T12:08:33.328Z,265
2018-01-25T12:09:42.162Z,270
2018-01-25T12:10:50.998Z,270
2018-01-25T12:11:59.836Z,265
2018-01-25T12:13:08.668Z,265
2018-01-25T12:14:17.498Z,265
2018-01-25T12:15:26.330Z,260
2018-01-25T12:16:35.166Z,245
2018-01-25T12:17:44.000Z,240
2018-01-25T12:18:52.833Z,245
2018-01-25T12:20:01.664Z,245
2018-01-25T12:21:10.649Z,240
2018-01-25T12:22:19.757Z,240
2018-01-25T12:23:28.593Z,250
2018-01-25T12:24:37.426Z,255
2018-01-25T12:25:46.597Z,255
2018-01-25T12:26:55.686Z,255
2018-01-25T12:28:04.559Z,245
2018-01-25T12:29:13.390Z,255
2018-01-25T12:30:22.248Z,270
2018-01-25T12:31:31.443Z,270
2018-01-25T12:32:40.377Z,265
2018-01-25T12:33:49.214Z,270
2018-01-25T12:34:58.048Z,270
2018-01-25T12:36:06.882Z,265
2018-01-25T12:37:15.716Z,265
2018-01-25T12:38:24.599Z,275
2018-01-25T12:39:33.434Z,270
2018-01-25T12:40:42.268Z,270
2018-01-25T12:41:51.100Z,275
2018-01-25T12:42:59.939Z,265
2018-01-25T12:44:08.767Z,265
2018-01-25T12:45:17.602Z,265
2018-01-25T12:46:26.437Z,275
2018-01-25T12:47:35.269Z,280
2018-01-25T12:48:44.102Z,275
2018-01-25T12:49:53.087Z,270
2018-01-25T12:51:01.919Z,275
2018-01-25T12:52:10.755Z,275
2018-01-25T12:53:19.588Z,270
2018-01-25T12:54:28.421Z,260
2018-01-25T12:55:37.405Z,240
2018-01-25T12:56:46.290Z,230
2018-01-25T12:57:55.088Z,210
2018-01-25T12:59:03.922Z,200
2018-01-25T13:00:12.758Z,225
2018-01-25T13:01:21.846Z,240
2018-01-25T13:02:30.680Z,260
2018-01-25T13:03:39.514Z,255
2018-01-25T13:04:48.347Z,250
2018-01-25T13:05:57.182Z,250
2018-01-25T13:07:06.014Z,255
2018-01-25T13:08:14.848Z,275
2018-01-25T13:09:23.686Z,295
2018-01-25T13:10:32.516Z,300
2018-01-25T13:11:41.351Z,290
2018-01-25T13:12:50.283Z,290
2018-01-25T13:13:59.117Z,285
2018-01-25T13:15:07.951Z,285
2018-01-25T13:16:16.784Z,280
2018-01-25T13:17:25.892Z,270
2018-01-25T13:18:34.825Z,285
2018-01-25T13:19:43.659Z,285
2018-01-25T13:20:52.490Z,285
2018-01-25T13:22:01.324Z,280
2018-01-25T13:23:10.159Z,275
2018-01-25T13:24:19.149Z,280
2018-01-25T13:25:27.985Z,275
2018-01-25T13:26:36.815Z,275
2018-01-25T13:27:45.651Z,275
2018-01-25T13:28:54.483Z,270
2018-01-25T13:30:03.469Z,265
2018-01-25T13:31:12.303Z,260
2018-01-25T13:32:21.137Z,265
2018-01-25T13:33:29.970Z,260
2018-01-25T13:34:38.807Z,255
2018-01-25T13:35:47.695Z,250
2018-01-25T13:36:56.526Z,250
2018-01-25T13:38:05.359Z,245
2018-01-25T13:39:14.195Z,240
2018-01-25T13:40:23.031Z,225
2018-01-25T13:41:31.966Z,205
2018-01-25T13:42:40.800Z,190
2018-01-25T13:43:49.635Z,200
2018-01-25T13:44:58.468Z,195
2018-01-25T13:46:07.301Z,180
2018-01-25T13:47:16.236Z,175
2018-01-25T13:48:25.068Z,170
2018-01-25T13:49:34.174Z,175
2018-01-25T13:50:43.008Z,180
2018-01-25T13:51:51.842Z,170
2018-01-25T13:53:00.778Z,165
2018-01-25T13:54:09.612Z,165
2018-01-25T13:55:18.450Z,170
2018-01-25T13:56:27.278Z,150
2018-01-25T13:57:36.112Z,145
2018-01-25T13:58:45.051Z,155
2018-01-25T13:59:53.881Z,170
2018-01-25T14:01:02.719Z,175
2018-01-25T14:02:11.552Z,170
2018-01-25T14:03:20.388Z,165
2018-01-25T14:04:29.271Z,170
2018-01-25T14:05:38.379Z,170
2018-01-25T14:06:47.213Z,165
2018-01-25T14:07:56.047Z,175
2018-01-25T14:09:04.881Z,175
2018-01-25T14:10:13.863Z,175
2018-01-25T14:11:22.697Z,175
2018-01-25T14:12:31.529Z,180
2018-01-25T14:13:40.361Z,175
2018-01-25T14:14:49.193Z,175
2018-01-25T14:15:58.076Z,170
2018-01-25T14:17:07.182Z,165
2018-01-25T14:18:16.015Z,160
2018-01-25T14:19:24.848Z,160
2018-01-25T14:20:33.681Z,165
2018-01-25T14:21:42.786Z,170
2018-01-25T14:22:51.619Z,165
2018-01-25T14:24:00.452Z,160
2018-01-25T14:25:09.290Z,155
2018-01-25T14:26:18.137Z,160
2018-01-25T14:27:27.120Z,155
2018-01-25T14:28:35.954Z,145
2018-01-25T14:29:45.063Z,150
2018-01-25T14:30:53.896Z,150
2018-01-25T14:32:02.734Z,145
2018-01-25T14:33:11.564Z,140
2018-01-25T14:34:20.397Z,145
2018-01-25T14:35:29.230Z,145
2018-01-25T14:36:38.064Z,145
2018-01-25T14:37:47.010Z,145
2018-01-25T14:38:56.103Z,145
2018-01-25T14:40:05.246Z,145
2018-01-25T14:41:14.905Z,150
2018-01-25T14:42:23.807Z,150
2018-01-25T14:43:32.815Z,145
2018-01-25T14:44:41.765Z,140
2018-01-25T14:45:50.873Z,140
2018-01-25T14:46:59.704Z,145
2018-01-25T14:48:08.834Z,140
2018-01-25T14:49:17.666Z,140
2018-01-25T14:50:26.827Z,140
2018-01-25T14:51:35.660Z,140
2018-01-25T14:52:44.495Z,140
2018-01-25T14:53:53.327Z,135
2018-01-25T14:55:02.436Z,130
2018-01-25T14:56:11.705Z,125
2018-01-25T14:57:20.550Z,120
2018-01-25T14:58:29.383Z,115
2018-01-25T14:59:38.218Z,105
2018-01-25T15:00:47.048Z,100
2018-01-25T15:01:56.183Z,95
2018-01-25T15:03:05.016Z,90
2018-01-25T15:04:13.850Z,90
2018-01-25T15:05:22.682Z,85
2018-01-25T15:06:31.516Z,85
2018-01-25T15:07:40.674Z,80
2018-01-25T15:08:49.513Z,80
2018-01-25T15:09:58.888Z,75
2018-01-25T15:11:07.721Z,70
2018-01-25T15:12:16.554Z,65
2018-01-25T15:13:25.435Z,65
2018-01-25T15:14:34.268Z,60
2018-01-25T15:15:43.101Z,55
2018-01-25T15:16:51.935Z,50
2018-01-25T15:18:00.769Z,50
2018-01-25T15:19:09.701Z,45
2018-01-25T15:20:18.536Z,40
2018-01-25T15:21:27.375Z,35
2018-01-25T15:22:36.481Z,35
2018-01-25T15:23:45.585Z,30
2018-01-25T15:24:54.572Z,25
2018-01-25T15:26:03.403Z,20
2018-01-25T15:27:12.238Z,20
2018-01-25T15:28:21.072Z,15
2018-01-25T15:29:29.907Z,15
2018-01-25T15:30:38.742Z,15
2018-01-25T15:31:47.574Z,15
2018-01-25T15:32:56.407Z,15
2018-01-25T15:34:05.241Z,15
2018-01-25T15:35:14.074Z,20
2018-01-25T15:36:23.180Z,15
2018-01-25T15:37:32.012Z,15
2018-01-25T15:38:40.847Z,15
2018-01-25T15:39:49.678Z,15
2018-01-25T15:40:58.560Z,15
2018-01-25T15:42:07.668Z,15
2018-01-25T15:43:16.502Z,15
2018-01-25T15:44:25.332Z,15
2018-01-25T15:45:34.170Z,10
2018-01-25T15:46:42.998Z,10
2018-01-25T15:47:52.136Z,10
2018-01-25T15:49:00.961Z,10
2018-01-25T15:50:09.792Z,10
2018-01-25T15:51:18.625Z,10
2018-01-25T15:52:27.458Z,5
2018-01-25T15:53:36.441Z,5
2018-01-25T15:54:45.273Z,5
2018-01-25T15:55:54.111Z,5
2018-01-25T15:57:03.214Z,5
2018-01-25T15:58:12.048Z,5
2018-01-25T15:59:20.883Z,5
2018-01-25T16:00:29.715Z,0
2018-01-25T16:01:38.549Z,0
2018-01-25T16:02:47.382Z,0
2018-01-25T16:03:56.212Z,0
2018-01-25T16:05:05.195Z,0
2018-01-25T16:06:14.028Z,0
2018-01-25T16:07:22.858Z,0
2018-01-25T16:08:31.966Z,0
2018-01-25T16:09:40.797Z,0
2018-01-25T16:10:49.773Z,0
2018-01-25T16:11:58.563Z,0
2018-01-25T16:13:07.395Z,0
2018-01-25T16:14:16.228Z,0
2018-01-25T16:15:25.062Z,0
2018-01-25T16:16:33.995Z,0
2018-01-25T16:17:42.826Z,0
2018-01-25T16:18:51.660Z,0
2018-01-25T16:20:00.492Z,0
2018-01-25T16:21:09.325Z,0
2018-01-25T16:22:18.256Z,0
2018-01-25T16:23:27.088Z,0
2018-01-25T16:24:35.918Z,0
2018-01-25T16:25:44.752Z,0
2018-01-25T16:26:53.585Z,0